Stony Hill, Missouri
Current Conditions -  °F | °C
As of 7:55 AM on Thursday 29 Jan 2015 (Local Time) from KFYG Reporting Station
Overcast Overcast  
Wind Chill: 31°   Ceiling: 2300
Heat Index: 41°   Visibility: 10mi
Dew Point: 32°   Wind: 22mph
Humidity: 70%   Direction: 310°NW
Pressure: 30.06"   Gusts: 30mph
Location:  38.5502°N, 91.2585°W
Report Text: KFYG 291355Z AUTO 31019G26KT 10SM OVC023 05/00 A3006 RMK AO2
Loading
Personal Weather Stations






























Interactive Weather Map New forecast layout! Learn more

10-Day Weather Forecast

Advertisements
Track Severe Weather on mobile